This is the latest recevied weather packets stored in our database for station/object EA4URC-10. If no packets are shown the sender has not sent any weather packets the latest 10 day(s).
| Time | Temp. | Humidity | Pressure | Rain* | Wind** | Luminosity | Snow |
|---|---|---|---|---|---|---|---|
| 1788156590 | 19.44° C | 40% | 1036.2 hPa | - | - | - | - |
| 1788154790 | 18.33° C | 42% | 1036.2 hPa | - | - | - | - |
| 1788152989 | 18.33° C | 41% | 1035.9 hPa | - | - | - | - |
| 1788151189 | 18.33° C | 41% | 1035.9 hPa | - | - | - | - |
| 1788149388 | 18.33° C | 42% | 1035.9 hPa | - | - | - | - |
| 1788147587 | 18.33° C | 42% | 1035.9 hPa | - | - | - | - |
| 1788145787 | 18.33° C | 42% | 1035.9 hPa | - | - | - | - |
| 1788143992 | 17.78° C | 43% | 1035.9 hPa | - | - | - | - |
| 1788142192 | 18.33° C | 40% | 1036 hPa | - | - | - | - |
| 1788140391 | 18.89° C | 40% | 1036.1 hPa | - | - | - | - |
| 1788138591 | 18.89° C | 39% | 1035.9 hPa | - | - | - | - |
| 1788136790 | 18.89° C | 38% | 1036 hPa | - | - | - | - |
| 1788134989 | 19.44° C | 36% | 1036.1 hPa | - | - | - | - |
| 1788133189 | 20° C | 33% | 1036.1 hPa | - | - | - | - |
| 1788131388 | 20° C | 32% | 1036.2 hPa | - | - | - | - |
| 1788129588 | 20.56° C | 30% | 1036.2 hPa | - | - | - | - |
| 1788127787 | 20.56° C | 30% | 1036.1 hPa | - | - | - | - |
| 1788125986 | 21.11° C | 29% | 1036.1 hPa | - | - | - | - |
| 1788124186 | 21.11° C | 28% | 1036 hPa | - | - | - | - |
| 1788122391 | 21.11° C | 28% | 1036.1 hPa | - | - | - | - |
| 1788120591 | 21.67° C | 27% | 1035.9 hPa | - | - | - | - |
| 1788118790 | 21.67° C | 27% | 1035.6 hPa | - | - | - | - |
| 1788116993 | 22.22° C | 26% | 1035.4 hPa | - | - | - | - |
| 1788115189 | 23.33° C | 24% | 1035.2 hPa | - | - | - | - |
| 1788113388 | 25° C | 22% | 1035 hPa | - | - | - | - |
* Rain since midnight (hover to see other rain measurements)
** Current wind speed in m/s (hover to see current wind gust speed)